Impacts TAF Board
For situational awareness. Not to be used for flight planning purposes.
IDs:

KTUL - Tulsa Intl Arpt, OK, US

Issued at 0520 UTC 18 Sep 2021
Updated at 0816 UTC 18 Sep 2021
Potential Impact None Slight Moderate High
Time0753Z 18/09Z 18/10Z 18/11Z 18/12Z 18/13Z 18/14Z 18/15Z 18/16Z 18/17Z 18/18Z 18/19Z 18/20Z 18/21Z>>
Type OBS PRVL PRVL PRVL PRVL PRVL PRVL PRVL PRVL PRVL PRVL PRVL PRVL PRVL
VIS 10 >6 >6 >6 >6 >6 >6 >6 >6 >6 >6 >6 >6 >6
CIG -- -- -- -- -- -- -- -- -- -- -- -- -- --
Cover CLR FEW FEW FEW FEW FEW FEW FEW SCT SCT SCT SCT SCT SCT
FltCat VFR VFR VFR VFR VFR VFR VFR VFR VFR VFR VFR VFR VFR VFR
WX -- -- -- -- -- -- -- -- -- -- -- -- -- --
WDir 340 90 90 90 90 90 90 90 60 60 60 60 60 60
WSpd 4 5 5 5 5 5 5 5 9 9 9 9 9 9
WGst -- -- -- -- -- -- -- -- -- -- -- -- -- --
Raw TAF
KTUL 180520Z 1806/1906 09005KT P6SM FEW250
  FM181600 06009KT P6SM SCT060
  FM190100 05006KT P6SM SKC


Raw METAR
KTUL 180753Z 34004KT 10SM CLR 21/18 A3007 RMK AO2 SLP176 T02060183
KTUL 180653Z 32005KT 10SM CLR 21/19 A3006 RMK AO2 SLP172 T02110189
KTUL 180553Z 00000KT 10SM FEW120 FEW200 26/18 A3006 RMK AO2 SLP169 T02560183 10317 20250 403440206 55003

METAR Board
Radar Display
Forecast Discussion
For situational awareness. Not to be used for flight planning purposes.